sensor_id;sensor_type;location;lat;lon;timestamp;pressure;altitude;pressure_sealevel;temperature
70050;BMP180;57391;51.306;22.680;2024-01-11T00:01:24;100368.00;;;-4.30
70050;BMP180;57391;51.306;22.680;2024-01-11T00:03:25;100369.60;;;-4.40
70050;BMP180;57391;51.306;22.680;2024-01-11T00:05:27;100365.40;;;-4.40
70050;BMP180;57391;51.306;22.680;2024-01-11T00:07:29;100358.20;;;-4.50
70050;BMP180;57391;51.306;22.680;2024-01-11T00:09:31;100352.40;;;-4.50
70050;BMP180;57391;51.306;22.680;2024-01-11T00:11:32;100350.00;;;-4.60
70050;BMP180;57391;51.306;22.680;2024-01-11T00:13:34;100354.00;;;-4.60
70050;BMP180;57391;51.306;22.680;2024-01-11T00:15:36;100347.60;;;-4.70
70050;BMP180;57391;51.306;22.680;2024-01-11T00:17:38;100352.40;;;-4.70
70050;BMP180;57391;51.306;22.680;2024-01-11T00:19:40;100341.20;;;-4.70
70050;BMP180;57391;51.306;22.680;2024-01-11T00:21:41;100335.60;;;-4.70
70050;BMP180;57391;51.306;22.680;2024-01-11T00:23:43;100329.20;;;-4.74
70050;BMP180;57391;51.306;22.680;2024-01-11T00:25:45;100322.00;;;-4.78
70050;BMP180;57391;51.306;22.680;2024-01-11T00:27:47;100319.00;;;-4.80
70050;BMP180;57391;51.306;22.680;2024-01-11T00:29:49;100312.00;;;-4.80
70050;BMP180;57391;51.306;22.680;2024-01-11T00:31:51;100308.80;;;-4.80
70050;BMP180;57391;51.306;22.680;2024-01-11T00:33:53;100296.80;;;-4.80
70050;BMP180;57391;51.306;22.680;2024-01-11T00:35:54;100298.20;;;-4.80
70050;BMP180;57391;51.306;22.680;2024-01-11T00:37:56;100293.60;;;-4.80
70050;BMP180;57391;51.306;22.680;2024-01-11T00:39:58;100296.60;;;-4.80
70050;BMP180;57391;51.306;22.680;2024-01-11T00:42:00;100301.00;;;-4.78
70050;BMP180;57391;51.306;22.680;2024-01-11T00:44:01;100295.80;;;-4.74
70050;BMP180;57391;51.306;22.680;2024-01-11T00:46:03;100285.00;;;-4.70
70050;BMP180;57391;51.306;22.680;2024-01-11T00:48:05;100286.40;;;-4.74
70050;BMP180;57391;51.306;22.680;2024-01-11T00:50:07;100279.00;;;-4.78
70050;BMP180;57391;51.306;22.680;2024-01-11T00:52:11;100271.80;;;-4.70
70050;BMP180;57391;51.306;22.680;2024-01-11T00:54:15;100280.40;;;-4.70
70050;BMP180;57391;51.306;22.680;2024-01-11T00:56:18;100279.40;;;-4.70
70050;BMP180;57391;51.306;22.680;2024-01-11T00:58:20;100279.20;;;-4.70
70050;BMP180;57391;51.306;22.680;2024-01-11T01:00:21;100268.40;;;-4.70
70050;BMP180;57391;51.306;22.680;2024-01-11T01:02:23;100264.60;;;-4.70
70050;BMP180;57391;51.306;22.680;2024-01-11T01:04:25;100261.20;;;-4.70
70050;BMP180;57391;51.306;22.680;2024-01-11T01:06:27;100258.00;;;-4.70
70050;BMP180;57391;51.306;22.680;2024-01-11T01:08:29;100256.00;;;-4.68
70050;BMP180;57391;51.306;22.680;2024-01-11T01:10:30;100254.00;;;-4.60
70050;BMP180;57391;51.306;22.680;2024-01-11T01:12:32;100257.00;;;-4.60
70050;BMP180;57391;51.306;22.680;2024-01-11T01:14:34;100259.20;;;-4.60
70050;BMP180;57391;51.306;22.680;2024-01-11T01:16:36;100259.20;;;-4.60
70050;BMP180;57391;51.306;22.680;2024-01-11T01:18:37;100258.60;;;-4.60
70050;BMP180;57391;51.306;22.680;2024-01-11T01:20:39;100257.20;;;-4.58
70050;BMP180;57391;51.306;22.680;2024-01-11T01:22:41;100258.80;;;-4.52
70050;BMP180;57391;51.306;22.680;2024-01-11T01:24:42;100265.60;;;-4.50
70050;BMP180;57391;51.306;22.680;2024-01-11T01:26:44;100264.60;;;-4.50
70050;BMP180;57391;51.306;22.680;2024-01-11T01:28:46;100269.20;;;-4.50
70050;BMP180;57391;51.306;22.680;2024-01-11T01:30:48;100267.80;;;-4.50
70050;BMP180;57391;51.306;22.680;2024-01-11T01:32:49;100262.80;;;-4.44
70050;BMP180;57391;51.306;22.680;2024-01-11T01:34:51;100259.20;;;-4.40
70050;BMP180;57391;51.306;22.680;2024-01-11T01:36:53;100255.80;;;-4.40
70050;BMP180;57391;51.306;22.680;2024-01-11T01:38:54;100256.80;;;-4.40
70050;BMP180;57391;51.306;22.680;2024-01-11T01:40:56;100257.60;;;-4.40
70050;BMP180;57391;51.306;22.680;2024-01-11T01:42:59;100258.00;;;-4.40
70050;BMP180;57391;51.306;22.680;2024-01-11T01:45:04;100250.00;;;-4.40
70050;BMP180;57391;51.306;22.680;2024-01-11T01:47:06;100239.20;;;-4.38
70050;BMP180;57391;51.306;22.680;2024-01-11T01:49:10;100245.00;;;-4.38
70050;BMP180;57391;51.306;22.680;2024-01-11T01:51:13;100245.40;;;-4.34
70050;BMP180;57391;51.306;22.680;2024-01-11T01:53:19;100253.80;;;-4.30
70050;BMP180;57391;51.306;22.680;2024-01-11T01:55:26;100259.60;;;-4.32
70050;BMP180;57391;51.306;22.680;2024-01-11T01:57:31;100253.60;;;-4.30
70050;BMP180;57391;51.306;22.680;2024-01-11T01:59:35;100251.40;;;-4.26
70050;BMP180;57391;51.306;22.680;2024-01-11T02:01:36;100253.40;;;-4.20
70050;BMP180;57391;51.306;22.680;2024-01-11T02:03:39;100251.60;;;-4.20
70050;BMP180;57391;51.306;22.680;2024-01-11T02:05:42;100254.80;;;-4.20
70050;BMP180;57391;51.306;22.680;2024-01-11T02:07:44;100251.60;;;-4.10
70050;BMP180;57391;51.306;22.680;2024-01-11T02:09:46;100235.40;;;-4.10
70050;BMP180;57391;51.306;22.680;2024-01-11T02:11:51;100222.60;;;-4.00
70050;BMP180;57391;51.306;22.680;2024-01-11T02:13:54;100207.00;;;-4.00
70050;BMP180;57391;51.306;22.680;2024-01-11T02:15:56;100208.20;;;-4.00
70050;BMP180;57391;51.306;22.680;2024-01-11T02:17:58;100214.60;;;-4.00
70050;BMP180;57391;51.306;22.680;2024-01-11T02:20:00;100210.20;;;-4.00
70050;BMP180;57391;51.306;22.680;2024-01-11T02:22:13;100218.80;;;-4.00
70050;BMP180;57391;51.306;22.680;2024-01-11T02:24:17;100230.60;;;-3.90
70050;BMP180;57391;51.306;22.680;2024-01-11T02:26:19;100236.40;;;-3.90
70050;BMP180;57391;51.306;22.680;2024-01-11T02:28:24;100235.00;;;-3.80
70050;BMP180;57391;51.306;22.680;2024-01-11T02:30:25;100223.20;;;-3.80
70050;BMP180;57391;51.306;22.680;2024-01-11T02:32:27;100225.00;;;-3.70
70050;BMP180;57391;51.306;22.680;2024-01-11T02:34:29;100213.80;;;-3.70
70050;BMP180;57391;51.306;22.680;2024-01-11T02:36:31;100209.40;;;-3.70
70050;BMP180;57391;51.306;22.680;2024-01-11T02:38:34;100198.20;;;-3.62
70050;BMP180;57391;51.306;22.680;2024-01-11T02:40:38;100197.20;;;-3.60
70050;BMP180;57391;51.306;22.680;2024-01-11T02:42:41;100189.60;;;-3.60
70050;BMP180;57391;51.306;22.680;2024-01-11T02:44:42;100185.40;;;-3.60
70050;BMP180;57391;51.306;22.680;2024-01-11T02:46:47;100187.60;;;-3.60
70050;BMP180;57391;51.306;22.680;2024-01-11T02:48:48;100181.40;;;-3.60
70050;BMP180;57391;51.306;22.680;2024-01-11T02:50:50;100174.80;;;-3.52
70050;BMP180;57391;51.306;22.680;2024-01-11T02:52:52;100162.20;;;-3.50
70050;BMP180;57391;51.306;22.680;2024-01-11T02:54:53;100147.00;;;-3.50
70050;BMP180;57391;51.306;22.680;2024-01-11T02:56:55;100133.20;;;-3.50
70050;BMP180;57391;51.306;22.680;2024-01-11T02:58:58;100132.00;;;-3.54
70050;BMP180;57391;51.306;22.680;2024-01-11T03:01:00;100135.20;;;-3.52
70050;BMP180;57391;51.306;22.680;2024-01-11T03:03:02;100141.60;;;-3.58
70050;BMP180;57391;51.306;22.680;2024-01-11T03:05:04;100145.20;;;-3.60
70050;BMP180;57391;51.306;22.680;2024-01-11T03:07:06;100143.80;;;-3.58
70050;BMP180;57391;51.306;22.680;2024-01-11T03:09:07;100137.60;;;-3.54
70050;BMP180;57391;51.306;22.680;2024-01-11T03:11:09;100140.60;;;-3.52
70050;BMP180;57391;51.306;22.680;2024-01-11T03:13:11;100143.80;;;-3.50
70050;BMP180;57391;51.306;22.680;2024-01-11T03:15:14;100127.00;;;-3.50
70050;BMP180;57391;51.306;22.680;2024-01-11T03:17:16;100105.60;;;-3.50
70050;BMP180;57391;51.306;22.680;2024-01-11T03:19:18;100106.80;;;-3.56
70050;BMP180;57391;51.306;22.680;2024-01-11T03:21:20;100103.80;;;-3.60
70050;BMP180;57391;51.306;22.680;2024-01-11T03:23:21;100105.40;;;-3.60
70050;BMP180;57391;51.306;22.680;2024-01-11T03:25:23;100094.60;;;-3.62
70050;BMP180;57391;51.306;22.680;2024-01-11T03:27:25;100091.20;;;-3.70
70050;BMP180;57391;51.306;22.680;2024-01-11T03:29:27;100094.40;;;-3.70
70050;BMP180;57391;51.306;22.680;2024-01-11T03:31:29;100094.60;;;-3.70
70050;BMP180;57391;51.306;22.680;2024-01-11T03:33:31;100093.20;;;-3.70
70050;BMP180;57391;51.306;22.680;2024-01-11T03:35:32;100108.80;;;-3.72
70050;BMP180;57391;51.306;22.680;2024-01-11T03:37:35;100104.80;;;-3.76
70050;BMP180;57391;51.306;22.680;2024-01-11T03:39:36;100116.20;;;-3.74
70050;BMP180;57391;51.306;22.680;2024-01-11T03:41:44;100116.60;;;-3.78
70050;BMP180;57391;51.306;22.680;2024-01-11T03:43:46;100116.40;;;-3.80
70050;BMP180;57391;51.306;22.680;2024-01-11T03:45:48;100112.00;;;-3.80
70050;BMP180;57391;51.306;22.680;2024-01-11T03:47:49;100105.80;;;-3.80
70050;BMP180;57391;51.306;22.680;2024-01-11T03:49:51;100100.20;;;-3.80
70050;BMP180;57391;51.306;22.680;2024-01-11T03:51:53;100087.80;;;-3.80
70050;BMP180;57391;51.306;22.680;2024-01-11T03:53:54;100093.00;;;-3.80
70050;BMP180;57391;51.306;22.680;2024-01-11T03:55:56;100098.60;;;-3.80
70050;BMP180;57391;51.306;22.680;2024-01-11T03:57:58;100107.60;;;-3.80
70050;BMP180;57391;51.306;22.680;2024-01-11T04:00:00;100100.60;;;-3.80
70050;BMP180;57391;51.306;22.680;2024-01-11T04:02:01;100099.20;;;-3.80
70050;BMP180;57391;51.306;22.680;2024-01-11T04:04:03;100093.00;;;-3.80
70050;BMP180;57391;51.306;22.680;2024-01-11T04:06:05;100090.40;;;-3.80
70050;BMP180;57391;51.306;22.680;2024-01-11T04:08:07;100087.40;;;-3.78
70050;BMP180;57391;51.306;22.680;2024-01-11T04:10:09;100085.20;;;-3.78
70050;BMP180;57391;51.306;22.680;2024-01-11T04:12:11;100088.60;;;-3.74
70050;BMP180;57391;51.306;22.680;2024-01-11T04:14:13;100080.60;;;-3.70
70050;BMP180;57391;51.306;22.680;2024-01-11T04:16:14;100079.80;;;-3.70
70050;BMP180;57391;51.306;22.680;2024-01-11T04:18:16;100091.00;;;-3.70
70050;BMP180;57391;51.306;22.680;2024-01-11T04:20:18;100094.60;;;-3.70
70050;BMP180;57391;51.306;22.680;2024-01-11T04:22:19;100079.20;;;-3.70
70050;BMP180;57391;51.306;22.680;2024-01-11T04:24:21;100086.60;;;-3.78
70050;BMP180;57391;51.306;22.680;2024-01-11T04:26:23;100069.60;;;-3.80
70050;BMP180;57391;51.306;22.680;2024-01-11T04:28:25;100068.40;;;-3.80
70050;BMP180;57391;51.306;22.680;2024-01-11T04:30:26;100064.80;;;-3.90
70050;BMP180;57391;51.306;22.680;2024-01-11T04:32:28;100073.60;;;-4.00
70050;BMP180;57391;51.306;22.680;2024-01-11T04:34:30;100069.60;;;-4.00
70050;BMP180;57391;51.306;22.680;2024-01-11T04:36:32;100056.60;;;-4.00
70050;BMP180;57391;51.306;22.680;2024-01-11T04:38:34;100056.60;;;-4.10
70050;BMP180;57391;51.306;22.680;2024-01-11T04:40:36;100057.80;;;-4.10
70050;BMP180;57391;51.306;22.680;2024-01-11T04:42:37;100062.40;;;-4.14
70050;BMP180;57391;51.306;22.680;2024-01-11T04:44:39;100067.60;;;-4.20
70050;BMP180;57391;51.306;22.680;2024-01-11T04:46:41;100059.80;;;-4.20
70050;BMP180;57391;51.306;22.680;2024-01-11T04:48:43;100059.40;;;-4.20
70050;BMP180;57391;51.306;22.680;2024-01-11T04:50:45;100062.60;;;-4.20
70050;BMP180;57391;51.306;22.680;2024-01-11T04:52:48;100061.00;;;-4.20
70050;BMP180;57391;51.306;22.680;2024-01-11T04:54:49;100057.00;;;-4.20
70050;BMP180;57391;51.306;22.680;2024-01-11T04:56:51;100056.60;;;-4.20
70050;BMP180;57391;51.306;22.680;2024-01-11T04:58:53;100049.40;;;-4.20
70050;BMP180;57391;51.306;22.680;2024-01-11T05:00:54;100045.80;;;-4.20
70050;BMP180;57391;51.306;22.680;2024-01-11T05:02:56;100049.00;;;-4.14
70050;BMP180;57391;51.306;22.680;2024-01-11T05:04:58;100043.00;;;-4.10
70050;BMP180;57391;51.306;22.680;2024-01-11T05:06:59;100037.00;;;-4.10
70050;BMP180;57391;51.306;22.680;2024-01-11T05:09:01;100046.80;;;-4.04
70050;BMP180;57391;51.306;22.680;2024-01-11T05:11:03;100053.20;;;-4.00
70050;BMP180;57391;51.306;22.680;2024-01-11T05:13:05;100055.00;;;-4.00
70050;BMP180;57391;51.306;22.680;2024-01-11T05:15:07;100048.20;;;-4.00
70050;BMP180;57391;51.306;22.680;2024-01-11T05:17:09;100057.80;;;-3.92
70050;BMP180;57391;51.306;22.680;2024-01-11T05:19:11;100053.80;;;-3.90
70050;BMP180;57391;51.306;22.680;2024-01-11T05:21:13;100047.60;;;-3.80
70050;BMP180;57391;51.306;22.680;2024-01-11T05:23:15;100052.80;;;-3.70
70050;BMP180;57391;51.306;22.680;2024-01-11T05:25:17;100051.00;;;-3.68
70050;BMP180;57391;51.306;22.680;2024-01-11T05:27:18;100060.20;;;-3.60
70050;BMP180;57391;51.306;22.680;2024-01-11T05:29:20;100056.20;;;-3.52
70050;BMP180;57391;51.306;22.680;2024-01-11T05:31:22;100056.00;;;-3.50
70050;BMP180;57391;51.306;22.680;2024-01-11T05:33:23;100056.40;;;-3.48
70050;BMP180;57391;51.306;22.680;2024-01-11T05:35:25;100056.80;;;-3.50
70050;BMP180;57391;51.306;22.680;2024-01-11T05:37:28;100066.20;;;-3.50
70050;BMP180;57391;51.306;22.680;2024-01-11T05:39:30;100060.80;;;-3.46
70050;BMP180;57391;51.306;22.680;2024-01-11T05:41:32;100061.60;;;-3.46
70050;BMP180;57391;51.306;22.680;2024-01-11T05:43:34;100064.00;;;-3.48
70050;BMP180;57391;51.306;22.680;2024-01-11T05:45:35;100059.20;;;-3.48
70050;BMP180;57391;51.306;22.680;2024-01-11T05:47:37;100060.00;;;-3.42
70050;BMP180;57391;51.306;22.680;2024-01-11T05:49:40;100059.60;;;-3.40
70050;BMP180;57391;51.306;22.680;2024-01-11T05:51:42;100050.00;;;-3.38
70050;BMP180;57391;51.306;22.680;2024-01-11T05:53:44;100049.00;;;-3.34
70050;BMP180;57391;51.306;22.680;2024-01-11T05:55:45;100050.60;;;-3.30
70050;BMP180;57391;51.306;22.680;2024-01-11T05:57:48;100044.20;;;-3.30
70050;BMP180;57391;51.306;22.680;2024-01-11T05:59:49;100038.80;;;-3.30
70050;BMP180;57391;51.306;22.680;2024-01-11T06:01:51;100031.20;;;-3.30
70050;BMP180;57391;51.306;22.680;2024-01-11T06:03:53;100029.80;;;-3.30
70050;BMP180;57391;51.306;22.680;2024-01-11T06:05:54;100025.20;;;-3.30
70050;BMP180;57391;51.306;22.680;2024-01-11T06:07:56;100025.80;;;-3.32
70050;BMP180;57391;51.306;22.680;2024-01-11T06:09:58;100019.40;;;-3.30
70050;BMP180;57391;51.306;22.680;2024-01-11T06:12:00;100012.40;;;-3.30
70050;BMP180;57391;51.306;22.680;2024-01-11T06:14:02;100003.80;;;-3.30
70050;BMP180;57391;51.306;22.680;2024-01-11T06:16:04;100001.80;;;-3.30
70050;BMP180;57391;51.306;22.680;2024-01-11T06:18:06;100008.40;;;-3.30
70050;BMP180;57391;51.306;22.680;2024-01-11T06:20:08;100008.80;;;-3.30
70050;BMP180;57391;51.306;22.680;2024-01-11T06:22:11;99998.40;;;-3.30
70050;BMP180;57391;51.306;22.680;2024-01-11T06:24:13;99994.60;;;-3.30
70050;BMP180;57391;51.306;22.680;2024-01-11T06:26:14;99990.00;;;-3.30
70050;BMP180;57391;51.306;22.680;2024-01-11T06:28:16;99987.20;;;-3.30
70050;BMP180;57391;51.306;22.680;2024-01-11T06:30:18;99983.80;;;-3.38
70050;BMP180;57391;51.306;22.680;2024-01-11T06:32:24;99981.00;;;-3.30
70050;BMP180;57391;51.306;22.680;2024-01-11T06:34:26;99975.80;;;-3.30
70050;BMP180;57391;51.306;22.680;2024-01-11T06:37:00;99977.00;;;-3.30
70050;BMP180;57391;51.306;22.680;2024-01-11T06:39:24;99972.40;;;-3.30
70050;BMP180;57391;51.306;22.680;2024-01-11T06:41:26;99974.80;;;-3.30
70050;BMP180;57391;51.306;22.680;2024-01-11T06:43:28;99970.40;;;-3.30
70050;BMP180;57391;51.306;22.680;2024-01-11T06:45:30;99968.60;;;-3.30
70050;BMP180;57391;51.306;22.680;2024-01-11T06:47:32;99969.60;;;-3.32
70050;BMP180;57391;51.306;22.680;2024-01-11T06:49:33;99974.40;;;-3.34
70050;BMP180;57391;51.306;22.680;2024-01-11T06:51:35;99975.20;;;-3.38
70050;BMP180;57391;51.306;22.680;2024-01-11T06:53:37;99979.60;;;-3.40
70050;BMP180;57391;51.306;22.680;2024-01-11T06:55:39;99975.00;;;-3.40
70050;BMP180;57391;51.306;22.680;2024-01-11T06:57:42;99972.20;;;-3.40
70050;BMP180;57391;51.306;22.680;2024-01-11T06:59:44;99970.00;;;-3.40
70050;BMP180;57391;51.306;22.680;2024-01-11T07:01:47;99966.40;;;-3.40
70050;BMP180;57391;51.306;22.680;2024-01-11T07:03:49;99968.20;;;-3.40
70050;BMP180;57391;51.306;22.680;2024-01-11T07:05:51;99967.40;;;-3.40
70050;BMP180;57391;51.306;22.680;2024-01-11T07:07:53;99968.60;;;-3.40
70050;BMP180;57391;51.306;22.680;2024-01-11T07:09:55;99971.80;;;-3.40
70050;BMP180;57391;51.306;22.680;2024-01-11T07:11:57;99970.80;;;-3.40
70050;BMP180;57391;51.306;22.680;2024-01-11T07:13:59;99964.60;;;-3.40
70050;BMP180;57391;51.306;22.680;2024-01-11T07:16:01;99962.00;;;-3.38
70050;BMP180;57391;51.306;22.680;2024-01-11T07:18:04;99959.40;;;-3.38
70050;BMP180;57391;51.306;22.680;2024-01-11T07:20:07;99959.00;;;-3.36
70050;BMP180;57391;51.306;22.680;2024-01-11T07:22:09;99954.20;;;-3.30
70050;BMP180;57391;51.306;22.680;2024-01-11T07:24:11;99952.40;;;-3.30
70050;BMP180;57391;51.306;22.680;2024-01-11T07:26:13;99945.40;;;-3.30
70050;BMP180;57391;51.306;22.680;2024-01-11T07:28:15;99950.00;;;-3.30
70050;BMP180;57391;51.306;22.680;2024-01-11T07:30:18;99947.60;;;-3.30
70050;BMP180;57391;51.306;22.680;2024-01-11T07:32:20;99939.40;;;-3.30
70050;BMP180;57391;51.306;22.680;2024-01-11T07:34:22;99935.60;;;-3.30
70050;BMP180;57391;51.306;22.680;2024-01-11T07:36:25;99935.80;;;-3.30
70050;BMP180;57391;51.306;22.680;2024-01-11T07:38:27;99932.60;;;-3.30
70050;BMP180;57391;51.306;22.680;2024-01-11T07:40:29;99937.80;;;-3.30
70050;BMP180;57391;51.306;22.680;2024-01-11T07:42:31;99937.60;;;-3.30
70050;BMP180;57391;51.306;22.680;2024-01-11T07:44:33;99939.40;;;-3.30
70050;BMP180;57391;51.306;22.680;2024-01-11T07:46:35;99935.20;;;-3.30
70050;BMP180;57391;51.306;22.680;2024-01-11T07:48:37;99934.20;;;-3.30
70050;BMP180;57391;51.306;22.680;2024-01-11T07:50:39;99931.60;;;-3.30
70050;BMP180;57391;51.306;22.680;2024-01-11T07:52:41;99936.60;;;-3.30
70050;BMP180;57391;51.306;22.680;2024-01-11T07:54:43;99935.80;;;-3.30
70050;BMP180;57391;51.306;22.680;2024-01-11T07:56:44;99942.00;;;-3.28
70050;BMP180;57391;51.306;22.680;2024-01-11T07:58:46;99947.00;;;-3.26
70050;BMP180;57391;51.306;22.680;2024-01-11T08:00:48;99952.00;;;-3.20
70050;BMP180;57391;51.306;22.680;2024-01-11T08:02:50;99952.40;;;-3.20
70050;BMP180;57391;51.306;22.680;2024-01-11T08:04:52;99944.40;;;-3.20
70050;BMP180;57391;51.306;22.680;2024-01-11T08:06:54;99948.20;;;-3.20
70050;BMP180;57391;51.306;22.680;2024-01-11T08:08:56;99949.20;;;-3.20
70050;BMP180;57391;51.306;22.680;2024-01-11T08:10:58;99944.40;;;-3.20
70050;BMP180;57391;51.306;22.680;2024-01-11T08:13:00;99941.20;;;-3.20
70050;BMP180;57391;51.306;22.680;2024-01-11T08:15:02;99936.40;;;-3.20
70050;BMP180;57391;51.306;22.680;2024-01-11T08:17:04;99931.80;;;-3.16
70050;BMP180;57391;51.306;22.680;2024-01-11T08:19:06;99935.20;;;-3.12
70050;BMP180;57391;51.306;22.680;2024-01-11T08:21:08;99935.20;;;-3.10
70050;BMP180;57391;51.306;22.680;2024-01-11T08:23:11;99945.40;;;-3.14
70050;BMP180;57391;51.306;22.680;2024-01-11T08:25:12;99954.40;;;-3.10
70050;BMP180;57391;51.306;22.680;2024-01-11T08:27:14;99951.00;;;-3.10
70050;BMP180;57391;51.306;22.680;2024-01-11T08:29:18;99947.20;;;-3.10
70050;BMP180;57391;51.306;22.680;2024-01-11T08:31:21;99945.60;;;-3.10
70050;BMP180;57391;51.306;22.680;2024-01-11T08:33:23;99951.20;;;-3.06
70050;BMP180;57391;51.306;22.680;2024-01-11T08:35:25;99945.40;;;-3.00
70050;BMP180;57391;51.306;22.680;2024-01-11T08:37:26;99948.40;;;-3.00
70050;BMP180;57391;51.306;22.680;2024-01-11T08:39:28;99947.40;;;-3.00
70050;BMP180;57391;51.306;22.680;2024-01-11T08:41:30;99952.80;;;-2.96
70050;BMP180;57391;51.306;22.680;2024-01-11T08:43:32;99953.00;;;-2.90
70050;BMP180;57391;51.306;22.680;2024-01-11T08:45:34;99950.20;;;-2.90
70050;BMP180;57391;51.306;22.680;2024-01-11T08:47:36;99940.00;;;-2.90
70050;BMP180;57391;51.306;22.680;2024-01-11T08:49:39;99936.60;;;-2.90
70050;BMP180;57391;51.306;22.680;2024-01-11T08:51:41;99950.60;;;-2.90
70050;BMP180;57391;51.306;22.680;2024-01-11T08:53:43;99960.20;;;-2.82
70050;BMP180;57391;51.306;22.680;2024-01-11T08:55:45;99960.20;;;-2.80
70050;BMP180;57391;51.306;22.680;2024-01-11T08:57:46;99957.20;;;-2.80
70050;BMP180;57391;51.306;22.680;2024-01-11T08:59:48;99958.40;;;-2.78
70050;BMP180;57391;51.306;22.680;2024-01-11T09:01:51;99957.40;;;-2.72
70050;BMP180;57391;51.306;22.680;2024-01-11T09:03:52;99963.00;;;-2.70
70050;BMP180;57391;51.306;22.680;2024-01-11T09:05:54;99964.20;;;-2.70
70050;BMP180;57391;51.306;22.680;2024-01-11T09:07:58;99959.80;;;-2.70
70050;BMP180;57391;51.306;22.680;2024-01-11T09:10:00;99965.00;;;-2.70
70050;BMP180;57391;51.306;22.680;2024-01-11T09:12:03;99965.40;;;-2.70
70050;BMP180;57391;51.306;22.680;2024-01-11T09:14:06;99965.60;;;-2.70
70050;BMP180;57391;51.306;22.680;2024-01-11T09:16:08;99962.20;;;-2.70
70050;BMP180;57391;51.306;22.680;2024-01-11T09:18:10;99957.20;;;-2.70
70050;BMP180;57391;51.306;22.680;2024-01-11T09:20:12;99963.40;;;-2.70
70050;BMP180;57391;51.306;22.680;2024-01-11T09:22:16;99955.80;;;-2.70
70050;BMP180;57391;51.306;22.680;2024-01-11T09:24:18;99966.40;;;-2.68
70050;BMP180;57391;51.306;22.680;2024-01-11T09:26:19;99961.20;;;-2.64
70050;BMP180;57391;51.306;22.680;2024-01-11T09:28:21;99958.20;;;-2.60
70050;BMP180;57391;51.306;22.680;2024-01-11T09:30:23;99948.20;;;-2.60
70050;BMP180;57391;51.306;22.680;2024-01-11T09:32:25;99952.80;;;-2.60
70050;BMP180;57391;51.306;22.680;2024-01-11T09:34:27;99952.00;;;-2.54
70050;BMP180;57391;51.306;22.680;2024-01-11T09:36:28;99948.00;;;-2.60
70050;BMP180;57391;51.306;22.680;2024-01-11T09:38:30;99954.60;;;-2.60
70050;BMP180;57391;51.306;22.680;2024-01-11T09:40:32;99957.40;;;-2.58
70050;BMP180;57391;51.306;22.680;2024-01-11T09:42:34;99960.20;;;-2.54
70050;BMP180;57391;51.306;22.680;2024-01-11T09:44:37;99949.20;;;-2.52
70050;BMP180;57391;51.306;22.680;2024-01-11T09:46:40;99952.00;;;-2.56
70050;BMP180;57391;51.306;22.680;2024-01-11T09:48:43;99946.60;;;-2.60
70050;BMP180;57391;51.306;22.680;2024-01-11T09:50:47;99946.00;;;-2.56
70050;BMP180;57391;51.306;22.680;2024-01-11T09:52:50;99942.40;;;-2.58
70050;BMP180;57391;51.306;22.680;2024-01-11T09:54:52;99935.00;;;-2.52
70050;BMP180;57391;51.306;22.680;2024-01-11T09:56:58;99924.60;;;-2.50
70050;BMP180;57391;51.306;22.680;2024-01-11T09:59:00;99927.00;;;-2.50
70050;BMP180;57391;51.306;22.680;2024-01-11T10:01:07;99925.20;;;-2.50
70050;BMP180;57391;51.306;22.680;2024-01-11T10:03:10;99923.40;;;-2.50
70050;BMP180;57391;51.306;22.680;2024-01-11T10:05:12;99926.20;;;-2.50
70050;BMP180;57391;51.306;22.680;2024-01-11T10:07:17;99925.20;;;-2.50
70050;BMP180;57391;51.306;22.680;2024-01-11T10:09:22;99920.40;;;-2.50
70050;BMP180;57391;51.306;22.680;2024-01-11T10:11:24;99917.20;;;-2.50
70050;BMP180;57391;51.306;22.680;2024-01-11T10:15:17;99903.80;;;-2.50
70050;BMP180;57391;51.306;22.680;2024-01-11T10:17:19;99904.40;;;-2.46
70050;BMP180;57391;51.306;22.680;2024-01-11T10:19:21;99900.60;;;-2.48
70050;BMP180;57391;51.306;22.680;2024-01-11T10:21:24;99899.00;;;-2.50
70050;BMP180;57391;51.306;22.680;2024-01-11T10:23:26;99890.80;;;-2.48
70050;BMP180;57391;51.306;22.680;2024-01-11T10:25:30;99890.40;;;-2.48
70050;BMP180;57391;51.306;22.680;2024-01-11T10:27:32;99886.60;;;-2.42
70050;BMP180;57391;51.306;22.680;2024-01-11T10:29:34;99883.00;;;-2.40
70050;BMP180;57391;51.306;22.680;2024-01-11T10:31:40;99880.60;;;-2.40
70050;BMP180;57391;51.306;22.680;2024-01-11T10:33:42;99878.20;;;-2.40
70050;BMP180;57391;51.306;22.680;2024-01-11T10:35:44;99871.60;;;-2.40
70050;BMP180;57391;51.306;22.680;2024-01-11T10:37:50;99870.80;;;-2.40
70050;BMP180;57391;51.306;22.680;2024-01-11T10:39:57;99871.00;;;-2.40
70050;BMP180;57391;51.306;22.680;2024-01-11T10:42:06;99870.60;;;-2.40
70050;BMP180;57391;51.306;22.680;2024-01-11T10:44:22;99860.20;;;-2.32
70050;BMP180;57391;51.306;22.680;2024-01-11T10:46:25;99869.80;;;-2.30
70050;BMP180;57391;51.306;22.680;2024-01-11T10:48:30;99859.80;;;-2.30
70050;BMP180;57391;51.306;22.680;2024-01-11T10:50:37;99858.40;;;-2.26
70050;BMP180;57391;51.306;22.680;2024-01-11T10:52:56;99855.60;;;-2.24
70050;BMP180;57391;51.306;22.680;2024-01-11T10:54:59;99856.60;;;-2.20
70050;BMP180;57391;51.306;22.680;2024-01-11T10:57:02;99854.20;;;-2.20
70050;BMP180;57391;51.306;22.680;2024-01-11T10:59:06;99847.60;;;-2.20
70050;BMP180;57391;51.306;22.680;2024-01-11T11:01:11;99847.20;;;-2.20
70050;BMP180;57391;51.306;22.680;2024-01-11T11:03:15;99842.60;;;-2.16
70050;BMP180;57391;51.306;22.680;2024-01-11T11:05:19;99838.40;;;-2.10
70050;BMP180;57391;51.306;22.680;2024-01-11T11:07:23;99826.60;;;-2.10
70050;BMP180;57391;51.306;22.680;2024-01-11T11:09:25;99830.60;;;-2.10
70050;BMP180;57391;51.306;22.680;2024-01-11T11:11:31;99836.00;;;-2.00
70050;BMP180;57391;51.306;22.680;2024-01-11T11:13:33;99826.20;;;-2.00
70050;BMP180;57391;51.306;22.680;2024-01-11T11:15:39;99820.80;;;-2.00
70050;BMP180;57391;51.306;22.680;2024-01-11T11:17:43;99817.60;;;-2.00
70050;BMP180;57391;51.306;22.680;2024-01-11T11:19:45;99818.80;;;-1.98
70050;BMP180;57391;51.306;22.680;2024-01-11T11:21:48;99809.80;;;-1.90
70050;BMP180;57391;51.306;22.680;2024-01-11T11:23:50;99805.80;;;-1.90
70050;BMP180;57391;51.306;22.680;2024-01-11T11:25:54;99808.00;;;-1.90
70050;BMP180;57391;51.306;22.680;2024-01-11T11:37:24;99796.40;;;-1.70
70050;BMP180;57391;51.306;22.680;2024-01-11T11:39:27;99792.00;;;-1.70
70050;BMP180;57391;51.306;22.680;2024-01-11T11:41:32;99787.00;;;-1.70